Time;durP1;ratioP1;P1;durP2;ratioP2;P2;SDS_P1;SDS_P2;PMS_P1;PMS_P2;Temp;Humidity;BMP_temperature;BMP_pressure;BME280_temperature;BME280_humidity;BME280_pressure;Samples;Min_cycle;Max_cycle;Signal;HPM_P1;HPM_P2
2024/02/27 00:00:32;;;;;;;2.35;1.42;;;;;;;;;;5013547;28;20042;-57
2024/02/27 00:02:58;;;;;;;1.30;1.00;;;;;;;;;;5013598;28;20038;-57
2024/02/27 00:05:25;;;;;;;2.03;1.60;;;;;;;;;;5013744;28;20021;-57
2024/02/27 00:07:51;;;;;;;2.37;1.10;;;;;;;;;;5013754;28;20155;-57
2024/02/27 00:10:17;;;;;;;1.33;1.20;;;;;;;;;;5013157;28;20030;-57
2024/02/27 00:12:44;;;;;;;2.28;1.80;;;;;;;;;;5013637;28;20056;-60
2024/02/27 00:15:10;;;;;;;2.23;1.27;;;;;;;;;;5013329;28;20038;-58
2024/02/27 00:17:36;;;;;;;2.67;1.10;;;;;;;;;;5013434;28;20491;-57
2024/02/27 00:20:02;;;;;;;2.33;1.30;;;;;;;;;;5012898;28;20054;-60
2024/02/27 00:22:29;;;;;;;1.85;1.38;;;;;;;;;;5014255;28;20108;-57
2024/02/27 00:24:54;;;;;;;2.03;1.30;;;;;;;;;;5013601;28;20030;-59
2024/02/27 00:27:20;;;;;;;1.40;1.30;;;;;;;;;;5014120;28;20034;-59
2024/02/27 00:29:46;;;;;;;2.85;1.48;;;;;;;;;;5012522;28;20041;-59
2024/02/27 00:32:12;;;;;;;2.15;1.27;;;;;;;;;;5013924;28;20026;-59
2024/02/27 00:34:38;;;;;;;1.90;1.70;;;;;;;;;;5013977;28;20105;-60
2024/02/27 00:37:05;;;;;;;1.93;1.57;;;;;;;;;;5014080;28;20464;-60
2024/02/27 00:39:31;;;;;;;1.33;1.20;;;;;;;;;;5013657;28;20144;-60
2024/02/27 00:42:02;;;;;;;2.20;1.20;;;;;;;;;;5014010;28;20476;-58
2024/02/27 00:44:28;;;;;;;1.80;1.15;;;;;;;;;;5000732;28;20053;-59
2024/02/27 00:46:54;;;;;;;2.53;1.00;;;;;;;;;;5009518;28;20441;-59
2024/02/27 00:49:20;;;;;;;1.55;1.10;;;;;;;;;;5010200;28;20038;-60
2024/02/27 00:51:46;;;;;;;1.53;1.30;;;;;;;;;;5007473;28;20057;-59
2024/02/27 00:54:12;;;;;;;2.10;1.30;;;;;;;;;;5005279;28;20018;-59
2024/02/27 00:56:38;;;;;;;1.60;1.30;;;;;;;;;;5012797;28;20084;-59
2024/02/27 00:59:04;;;;;;;0.90;0.80;;;;;;;;;;5012869;28;20396;-58
2024/02/27 01:01:30;;;;;;;1.40;1.00;;;;;;;;;;5000142;28;20042;-59
2024/02/27 01:03:55;;;;;;;0.70;0.40;;;;;;;;;;5010914;28;20084;-59
2024/02/27 01:06:21;;;;;;;1.52;0.57;;;;;;;;;;5013065;28;20079;-60
2024/02/27 01:08:47;;;;;;;0.83;0.50;;;;;;;;;;5013182;28;20092;-60
2024/02/27 01:11:13;;;;;;;0.73;0.40;;;;;;;;;;5013257;28;20341;-60
2024/02/27 01:13:39;;;;;;;0.40;0.22;;;;;;;;;;5013557;28;20060;-60
2024/02/27 01:16:05;;;;;;;0.38;0.30;;;;;;;;;;5010603;28;20034;-60
2024/02/27 01:18:32;;;;;;;1.55;0.20;;;;;;;;;;5004849;28;20026;-60
2024/02/27 01:21:00;;;;;;;1.75;0.43;;;;;;;;;;5012849;28;20030;-59
2024/02/27 01:23:26;;;;;;;1.73;0.50;;;;;;;;;;5013731;28;20334;-59
2024/02/27 01:25:52;;;;;;;1.83;0.47;;;;;;;;;;5013197;28;20029;-59
2024/02/27 01:28:18;;;;;;;0.85;0.40;;;;;;;;;;5001575;28;20026;-60
2024/02/27 01:30:47;;;;;;;2.05;0.28;;;;;;;;;;5012845;28;20028;-60
2024/02/27 01:33:13;;;;;;;0.30;0.30;;;;;;;;;;5012209;28;20114;-60
2024/02/27 01:35:39;;;;;;;0.50;0.30;;;;;;;;;;5005837;28;20125;-60
2024/02/27 01:38:05;;;;;;;0.82;0.40;;;;;;;;;;5000819;28;20018;-60
2024/02/27 01:40:31;;;;;;;0.55;0.32;;;;;;;;;;5012625;28;20033;-59
2024/02/27 01:42:57;;;;;;;0.50;0.38;;;;;;;;;;5012597;28;20025;-60
2024/02/27 01:45:25;;;;;;;0.85;0.60;;;;;;;;;;5013134;28;20026;-60
2024/02/27 01:47:52;;;;;;;1.70;0.60;;;;;;;;;;5013006;28;20028;-60
2024/02/27 01:50:18;;;;;;;1.05;0.82;;;;;;;;;;5012541;28;20444;-60
2024/02/27 01:52:45;;;;;;;0.77;0.70;;;;;;;;;;5012877;28;20120;-60
2024/02/27 01:55:12;;;;;;;0.95;0.50;;;;;;;;;;5012777;28;20033;-60
2024/02/27 01:57:38;;;;;;;3.05;0.88;;;;;;;;;;5013082;28;20038;-60
2024/02/27 02:00:09;;;;;;;0.80;0.68;;;;;;;;;;5012332;28;20042;-60
2024/02/27 02:02:38;;;;;;;1.70;0.75;;;;;;;;;;5012859;28;20022;-60
2024/02/27 02:05:05;;;;;;;2.40;0.70;;;;;;;;;;5023920;28;20030;-60
2024/02/27 02:07:32;;;;;;;0.90;0.60;;;;;;;;;;5012757;28;20087;-60
2024/02/27 02:09:58;;;;;;;1.27;0.50;;;;;;;;;;5012456;28;20036;-60
2024/02/27 02:12:25;;;;;;;0.60;0.40;;;;;;;;;;5012365;28;20025;-60
2024/02/27 02:14:52;;;;;;;1.13;0.55;;;;;;;;;;5012491;28;20034;-60
2024/02/27 02:17:18;;;;;;;4.27;0.50;;;;;;;;;;5012414;28;20028;-60
2024/02/27 02:19:44;;;;;;;1.20;0.75;;;;;;;;;;5012618;28;20022;-60
2024/02/27 02:22:10;;;;;;;2.05;0.77;;;;;;;;;;5011853;28;20564;-60
2024/02/27 02:24:36;;;;;;;1.45;0.65;;;;;;;;;;5012211;28;20138;-60
2024/02/27 02:27:02;;;;;;;1.30;0.60;;;;;;;;;;5010443;28;20088;-60
2024/02/27 02:29:28;;;;;;;1.05;0.90;;;;;;;;;;5007681;28;20023;-60
2024/02/27 02:31:55;;;;;;;2.38;1.08;;;;;;;;;;5002462;28;20117;-60
2024/02/27 02:34:21;;;;;;;0.73;0.73;;;;;;;;;;5012324;28;20136;-60
2024/02/27 02:36:47;;;;;;;1.77;0.65;;;;;;;;;;5012198;28;20037;-60
2024/02/27 02:39:13;;;;;;;1.40;0.80;;;;;;;;;;5012128;28;20417;-60
2024/02/27 02:41:39;;;;;;;2.13;0.80;;;;;;;;;;5011918;28;20065;-60
2024/02/27 02:44:05;;;;;;;1.30;1.00;;;;;;;;;;5013998;28;20109;-60
2024/02/27 02:46:31;;;;;;;0.70;0.65;;;;;;;;;;5013819;28;20038;-58
2024/02/27 02:49:00;;;;;;;0.63;0.60;;;;;;;;;;5014531;28;20330;-59
2024/02/27 02:51:27;;;;;;;0.95;0.50;;;;;;;;;;5013388;28;20053;-60
2024/02/27 02:53:53;;;;;;;0.80;0.40;;;;;;;;;;5015523;28;20048;-60
2024/02/27 02:56:19;;;;;;;1.15;0.60;;;;;;;;;;5015248;28;20040;-60
2024/02/27 02:58:45;;;;;;;0.47;0.30;;;;;;;;;;5015644;28;20034;-60
2024/02/27 03:01:11;;;;;;;0.60;0.40;;;;;;;;;;5014058;28;20076;-57
2024/02/27 03:03:37;;;;;;;0.30;0.30;;;;;;;;;;5014196;28;20026;-55
2024/02/27 03:06:04;;;;;;;0.70;0.60;;;;;;;;;;5014439;28;20109;-55
2024/02/27 03:08:31;;;;;;;0.60;0.30;;;;;;;;;;5015257;28;20025;-55
2024/02/27 03:10:58;;;;;;;1.70;0.50;;;;;;;;;;5015529;28;20096;-55
2024/02/27 03:13:24;;;;;;;0.70;0.43;;;;;;;;;;5004631;28;20027;-56
2024/02/27 03:15:51;;;;;;;0.23;0.23;;;;;;;;;;5011515;28;20065;-56
2024/02/27 03:18:16;;;;;;;0.97;0.50;;;;;;;;;;5011274;28;20026;-51
2024/02/27 03:20:42;;;;;;;0.20;0.10;;;;;;;;;;5013667;28;20080;-53
2024/02/27 03:23:08;;;;;;;0.10;0.10;;;;;;;;;;5010730;28;20060;-55
2024/02/27 03:25:34;;;;;;;1.33;0.10;;;;;;;;;;5013566;28;20468;-57
2024/02/27 03:28:00;;;;;;;0.67;0.10;;;;;;;;;;5010452;28;20084;-57
2024/02/27 03:30:26;;;;;;;0.47;0.10;;;;;;;;;;5008652;28;20042;-58
2024/02/27 03:32:53;;;;;;;0.07;0.00;;;;;;;;;;5006640;28;20033;-54
2024/02/27 03:35:19;;;;;;;0.93;0.10;;;;;;;;;;5007898;28;20030;-56
2024/02/27 03:37:44;;;;;;;1.23;0.10;;;;;;;;;;5005297;28;20045;-59
2024/02/27 03:40:11;;;;;;;0.00;0.00;;;;;;;;;;5006303;28;20026;-57
2024/02/27 03:42:37;;;;;;;0.20;0.00;;;;;;;;;;5005858;28;20025;-57
2024/02/27 03:45:03;;;;;;;0.07;0.07;;;;;;;;;;5007401;28;20030;-57
2024/02/27 03:47:29;;;;;;;0.20;0.10;;;;;;;;;;5009965;28;20037;-54
2024/02/27 03:49:55;;;;;;;0.20;0.10;;;;;;;;;;5011424;28;20026;-55
2024/02/27 03:52:21;;;;;;;0.20;0.20;;;;;;;;;;5010517;28;20036;-56
2024/02/27 03:54:47;;;;;;;0.53;0.10;;;;;;;;;;5016413;28;20541;-54
2024/02/27 03:57:13;;;;;;;0.10;0.10;;;;;;;;;;5010224;28;20041;-53
2024/02/27 03:59:39;;;;;;;0.08;0.00;;;;;;;;;;5011235;28;20101;-53
2024/02/27 04:02:06;;;;;;;0.10;0.00;;;;;;;;;;5004931;28;20046;-54
2024/02/27 04:04:32;;;;;;;0.10;0.10;;;;;;;;;;5008557;28;20034;-53
2024/02/27 04:06:58;;;;;;;0.10;0.03;;;;;;;;;;5013911;28;20361;-54
2024/02/27 04:09:24;;;;;;;0.30;0.20;;;;;;;;;;5012650;28;20042;-55
2024/02/27 04:11:50;;;;;;;0.20;0.10;;;;;;;;;;5003642;28;20420;-55
2024/02/27 04:14:16;;;;;;;0.38;0.20;;;;;;;;;;5010634;28;20064;-56
2024/02/27 04:16:42;;;;;;;0.43;0.10;;;;;;;;;;5011446;28;20081;-55
2024/02/27 04:19:08;;;;;;;0.20;0.20;;;;;;;;;;5012570;28;20490;-56
2024/02/27 04:21:34;;;;;;;0.13;0.10;;;;;;;;;;5011608;28;20034;-55
2024/02/27 04:24:00;;;;;;;0.70;0.17;;;;;;;;;;5008739;28;20117;-56
2024/02/27 04:26:26;;;;;;;0.52;0.20;;;;;;;;;;5017286;28;20025;-56
2024/02/27 04:28:52;;;;;;;0.40;0.30;;;;;;;;;;5010008;28;20405;-55
2024/02/27 04:31:18;;;;;;;0.95;0.30;;;;;;;;;;5010201;28;20037;-53
2024/02/27 04:33:44;;;;;;;0.47;0.32;;;;;;;;;;5005721;28;20026;-55
2024/02/27 04:36:10;;;;;;;0.30;0.30;;;;;;;;;;5012213;28;20480;-54
2024/02/27 04:38:36;;;;;;;0.60;0.60;;;;;;;;;;5006949;28;20026;-54
2024/02/27 04:41:03;;;;;;;0.50;0.50;;;;;;;;;;5009895;28;20065;-55
2024/02/27 04:43:29;;;;;;;1.40;0.50;;;;;;;;;;5005374;28;20030;-55
2024/02/27 04:45:55;;;;;;;1.67;0.60;;;;;;;;;;5010252;28;20036;-56
2024/02/27 04:48:21;;;;;;;0.80;0.68;;;;;;;;;;5006658;28;20029;-57
2024/02/27 04:50:47;;;;;;;1.40;1.25;;;;;;;;;;5017609;28;20498;-57
2024/02/27 04:53:13;;;;;;;0.83;0.67;;;;;;;;;;5011639;28;20132;-56
2024/02/27 04:55:39;;;;;;;0.70;0.70;;;;;;;;;;5009236;28;20045;-58
2024/02/27 04:58:05;;;;;;;1.08;0.98;;;;;;;;;;5010029;28;20022;-57
2024/02/27 05:00:31;;;;;;;1.45;0.65;;;;;;;;;;5013460;28;20058;-55
2024/02/27 05:02:57;;;;;;;0.80;0.80;;;;;;;;;;5011949;28;20101;-54
2024/02/27 05:05:23;;;;;;;1.70;0.63;;;;;;;;;;5012992;28;20018;-54
2024/02/27 05:07:49;;;;;;;0.90;0.77;;;;;;;;;;5015063;28;20030;-56
2024/02/27 05:10:15;;;;;;;1.00;0.60;;;;;;;;;;5020889;28;20028;-57
2024/02/27 05:12:41;;;;;;;0.65;0.60;;;;;;;;;;5012980;28;20064;-57
2024/02/27 05:15:07;;;;;;;1.45;0.90;;;;;;;;;;5010688;28;20050;-54
2024/02/27 05:17:33;;;;;;;1.35;0.90;;;;;;;;;;5012472;28;20037;-55
2024/02/27 05:19:59;;;;;;;1.52;0.85;;;;;;;;;;5012942;28;20075;-55
2024/02/27 05:22:25;;;;;;;0.93;0.73;;;;;;;;;;5012784;28;20030;-55
2024/02/27 05:24:51;;;;;;;1.35;1.05;;;;;;;;;;5004677;28;20062;-57
2024/02/27 05:27:19;;;;;;;0.80;0.37;;;;;;;;;;5012259;28;20026;-57
2024/02/27 05:29:45;;;;;;;0.90;0.70;;;;;;;;;;5006516;28;20022;-56
2024/02/27 05:32:11;;;;;;;2.03;0.50;;;;;;;;;;5009737;28;20037;-55
2024/02/27 05:34:37;;;;;;;1.73;0.75;;;;;;;;;;5011003;28;20028;-56
2024/02/27 05:37:03;;;;;;;0.77;0.60;;;;;;;;;;5012026;28;20038;-56
2024/02/27 05:39:29;;;;;;;1.05;0.85;;;;;;;;;;5007376;28;20057;-57
2024/02/27 05:41:55;;;;;;;1.50;0.70;;;;;;;;;;5007253;28;20029;-57
2024/02/27 05:44:21;;;;;;;1.17;0.80;;;;;;;;;;5011685;28;20476;-56
2024/02/27 05:46:47;;;;;;;1.00;0.60;;;;;;;;;;5003637;28;20026;-57
2024/02/27 05:49:13;;;;;;;0.70;0.70;;;;;;;;;;5009076;28;20037;-58
2024/02/27 05:51:40;;;;;;;1.48;1.02;;;;;;;;;;5009542;28;20360;-55
2024/02/27 05:54:09;;;;;;;1.77;0.90;;;;;;;;;;5011793;28;20479;-57
2024/02/27 05:56:54;;;;;;;1.30;0.82;;;;;;;;;;5007097;28;20108;-56
2024/02/27 05:59:20;;;;;;;0.98;0.70;;;;;;;;;;4995389;28;20230;-56
2024/02/27 06:01:47;;;;;;;1.08;0.50;;;;;;;;;;5012086;28;20034;-57
2024/02/27 06:04:13;;;;;;;1.23;0.87;;;;;;;;;;5013942;28;20021;-55
2024/02/27 06:06:39;;;;;;;0.95;0.90;;;;;;;;;;5015826;28;20032;-55
2024/02/27 06:09:07;;;;;;;2.83;0.90;;;;;;;;;;5014830;28;20388;-56
2024/02/27 06:11:33;;;;;;;4.15;0.95;;;;;;;;;;5011731;28;20082;-57
2024/02/27 06:13:59;;;;;;;2.33;0.80;;;;;;;;;;5012664;28;20037;-57
2024/02/27 06:16:25;;;;;;;0.77;0.52;;;;;;;;;;5010531;28;20615;-56
2024/02/27 06:18:51;;;;;;;2.72;1.25;;;;;;;;;;5013465;28;20053;-54
2024/02/27 06:24:13;;;;;;;1.75;1.15;;;;;;;;;;5003431;28;20380;-59
2024/02/27 06:26:39;;;;;;;1.08;0.60;;;;;;;;;;5006935;28;20085;-59
2024/02/27 06:29:05;;;;;;;1.50;1.00;;;;;;;;;;5011005;28;20034;-59
2024/02/27 06:31:31;;;;;;;1.73;1.20;;;;;;;;;;5019679;28;20486;-59
2024/02/27 06:33:57;;;;;;;1.02;0.93;;;;;;;;;;5013412;28;20038;-59
2024/02/27 06:36:23;;;;;;;2.30;1.20;;;;;;;;;;5016694;28;20033;-61
2024/02/27 06:38:49;;;;;;;1.10;1.10;;;;;;;;;;5012112;28;20026;-59
2024/02/27 06:41:15;;;;;;;1.27;1.03;;;;;;;;;;5011003;28;20026;-59
2024/02/27 06:43:41;;;;;;;1.70;1.30;;;;;;;;;;5011232;28;20025;-60
2024/02/27 06:46:07;;;;;;;2.13;1.20;;;;;;;;;;5010876;28;20488;-59
2024/02/27 06:51:37;;;;;;;1.58;1.33;;;;;;;;;;5012641;28;20380;-60
2024/02/27 06:54:03;;;;;;;1.50;1.40;;;;;;;;;;5017367;28;20025;-60
2024/02/27 06:56:30;;;;;;;1.57;1.30;;;;;;;;;;5027092;28;20037;-60
2024/02/27 06:58:56;;;;;;;4.40;1.83;;;;;;;;;;5015312;28;20049;-60
2024/02/27 07:01:23;;;;;;;3.33;2.63;;;;;;;;;;5013654;28;20484;-60
2024/02/27 07:03:49;;;;;;;2.58;2.08;;;;;;;;;;5016403;28;20614;-60
2024/02/27 07:06:15;;;;;;;2.28;2.08;;;;;;;;;;5011607;28;20022;-60
2024/02/27 07:08:42;;;;;;;2.28;1.60;;;;;;;;;;5012180;28;20113;-60
2024/02/27 07:11:08;;;;;;;4.83;2.30;;;;;;;;;;5013766;28;20033;-59
2024/02/27 07:13:35;;;;;;;3.10;2.37;;;;;;;;;;5014111;28;20107;-59
2024/02/27 07:16:01;;;;;;;2.38;1.88;;;;;;;;;;5021820;28;20132;-59
2024/02/27 07:18:27;;;;;;;2.10;1.90;;;;;;;;;;5016897;28;20039;-59
2024/02/27 07:20:55;;;;;;;4.45;2.30;;;;;;;;;;5015708;28;20026;-59
2024/02/27 07:23:21;;;;;;;4.13;2.70;;;;;;;;;;5014247;28;20026;-59
2024/02/27 07:25:47;;;;;;;4.17;2.60;;;;;;;;;;5015426;28;20384;-58
2024/02/27 07:28:13;;;;;;;6.25;2.92;;;;;;;;;;5014133;28;20040;-59
2024/02/27 07:30:39;;;;;;;3.90;2.35;;;;;;;;;;5012686;28;20085;-59
2024/02/27 07:33:06;;;;;;;3.50;2.53;;;;;;;;;;5019088;28;20029;-59
2024/02/27 07:35:32;;;;;;;3.20;2.50;;;;;;;;;;5015035;28;20034;-58
2024/02/27 07:37:58;;;;;;;4.65;2.75;;;;;;;;;;5013744;28;20072;-59
2024/02/27 07:40:24;;;;;;;4.07;2.80;;;;;;;;;;5006180;28;20038;-59
2024/02/27 07:42:51;;;;;;;4.07;2.70;;;;;;;;;;5012233;28;20018;-59
2024/02/27 07:45:17;;;;;;;3.28;2.97;;;;;;;;;;5010877;28;20079;-59
2024/02/27 07:47:45;;;;;;;3.17;2.70;;;;;;;;;;5014628;28;20049;-58
2024/02/27 07:50:11;;;;;;;3.90;3.42;;;;;;;;;;5014577;28;20403;-59
2024/02/27 07:52:37;;;;;;;2.95;2.75;;;;;;;;;;5012761;28;20030;-59
2024/02/27 07:55:03;;;;;;;3.80;3.33;;;;;;;;;;5014213;28;20029;-59
2024/02/27 07:57:29;;;;;;;4.57;3.38;;;;;;;;;;5017424;28;20030;-59
2024/02/27 07:59:55;;;;;;;5.25;3.75;;;;;;;;;;5004819;28;20756;-70
2024/02/27 08:02:23;;;;;;;5.97;3.45;;;;;;;;;;5009032;28;20025;-68
2024/02/27 08:04:49;;;;;;;4.05;3.35;;;;;;;;;;5011285;28;20109;-66
2024/02/27 08:07:15;;;;;;;4.28;3.88;;;;;;;;;;5013372;28;20109;-60
2024/02/27 08:09:41;;;;;;;4.88;3.50;;;;;;;;;;5004491;28;20037;-61
2024/02/27 08:12:07;;;;;;;4.55;4.00;;;;;;;;;;5008791;28;20036;-62
2024/02/27 08:14:33;;;;;;;8.27;3.88;;;;;;;;;;5013400;28;20034;-64
2024/02/27 08:17:00;;;;;;;4.78;3.92;;;;;;;;;;5013552;28;20034;-60
2024/02/27 08:19:26;;;;;;;5.90;3.63;;;;;;;;;;5013686;28;20018;-60
2024/02/27 08:21:53;;;;;;;4.55;3.38;;;;;;;;;;5015555;28;20060;-60
2024/02/27 08:24:19;;;;;;;7.10;4.00;;;;;;;;;;5012381;28;20025;-59
2024/02/27 08:26:45;;;;;;;9.55;4.40;;;;;;;;;;5011699;28;20503;-58
2024/02/27 08:29:11;;;;;;;4.53;3.38;;;;;;;;;;5012167;28;20377;-59
2024/02/27 08:31:38;;;;;;;5.20;3.85;;;;;;;;;;5011722;28;20026;-61
2024/02/27 08:34:06;;;;;;;5.68;3.10;;;;;;;;;;5012229;28;20022;-61
2024/02/27 08:36:35;;;;;;;7.10;3.80;;;;;;;;;;5012167;28;20484;-65
2024/02/27 08:39:02;;;;;;;4.25;3.78;;;;;;;;;;5013048;28;20590;-56
2024/02/27 08:41:28;;;;;;;5.03;2.90;;;;;;;;;;5002674;28;20045;-59
2024/02/27 08:43:54;;;;;;;4.20;2.83;;;;;;;;;;5007375;28;20026;-75
2024/02/27 08:46:20;;;;;;;3.30;3.00;;;;;;;;;;5010984;28;20484;-61
2024/02/27 08:48:46;;;;;;;3.42;3.13;;;;;;;;;;5013438;28;20022;-60
2024/02/27 08:51:12;;;;;;;4.70;2.92;;;;;;;;;;5013452;28;20107;-60
2024/02/27 08:53:38;;;;;;;3.53;2.80;;;;;;;;;;5012568;28;20123;-59
2024/02/27 08:56:06;;;;;;;4.20;3.08;;;;;;;;;;5012586;28;20037;-60
2024/02/27 08:58:33;;;;;;;6.47;3.17;;;;;;;;;;5011847;28;20080;-54
2024/02/27 09:00:59;;;;;;;4.10;2.85;;;;;;;;;;5011041;28;20185;-51
2024/02/27 09:03:25;;;;;;;5.17;3.37;;;;;;;;;;5011910;28;20168;-59
2024/02/27 09:05:51;;;;;;;4.00;2.90;;;;;;;;;;5012512;28;20048;-60
2024/02/27 09:08:17;;;;;;;4.90;2.92;;;;;;;;;;5012898;28;20041;-57
2024/02/27 09:10:44;;;;;;;4.25;3.53;;;;;;;;;;5012538;28;20080;-58
2024/02/27 09:13:10;;;;;;;5.40;3.80;;;;;;;;;;4999810;28;20030;-65
2024/02/27 09:15:36;;;;;;;5.65;3.78;;;;;;;;;;5010814;28;20053;-65
2024/02/27 09:18:03;;;;;;;4.90;4.40;;;;;;;;;;5008555;28;20034;-65
2024/02/27 09:20:32;;;;;;;6.10;4.35;;;;;;;;;;5013069;28;20112;-65
2024/02/27 09:22:58;;;;;;;6.95;4.30;;;;;;;;;;5017920;28;20029;-62
2024/02/27 09:25:24;;;;;;;6.43;4.30;;;;;;;;;;5011881;28;20056;-60
2024/02/27 09:27:50;;;;;;;6.88;4.70;;;;;;;;;;4999613;28;20027;-65
2024/02/27 09:30:16;;;;;;;5.93;5.32;;;;;;;;;;5009262;28;20076;-64
2024/02/27 09:32:42;;;;;;;7.45;4.50;;;;;;;;;;5001702;28;20031;-64
2024/02/27 09:35:09;;;;;;;5.70;4.57;;;;;;;;;;5010121;28;20041;-59
2024/02/27 09:37:38;;;;;;;6.72;4.30;;;;;;;;;;5009028;28;20045;-62
2024/02/27 09:40:05;;;;;;;4.28;3.72;;;;;;;;;;5014741;28;20026;-71
2024/02/27 09:42:33;;;;;;;5.38;3.92;;;;;;;;;;5017267;28;20387;-71
2024/02/27 09:44:59;;;;;;;6.93;4.70;;;;;;;;;;5012397;28;20080;-63
2024/02/27 09:47:26;;;;;;;6.65;4.03;;;;;;;;;;5012741;28;20026;-48
2024/02/27 09:49:52;;;;;;;9.30;6.28;;;;;;;;;;5002237;28;20435;-65
2024/02/27 09:52:19;;;;;;;7.90;4.78;;;;;;;;;;5010427;28;20022;-61
2024/02/27 09:54:46;;;;;;;5.38;4.53;;;;;;;;;;5008339;28;20045;-61
2024/02/27 09:57:12;;;;;;;5.20;4.38;;;;;;;;;;5009220;28;20041;-61
2024/02/27 09:59:39;;;;;;;6.13;4.15;;;;;;;;;;5011475;28;20035;-55
2024/02/27 10:05:34;;;;;;;6.23;3.80;;;;;;;;;;5004895;28;20045;-69
2024/02/27 10:08:03;;;;;;;6.07;3.90;;;;;;;;;;5007874;28;20128;-69
2024/02/27 10:10:29;;;;;;;5.57;4.32;;;;;;;;;;5010284;28;20093;-61
2024/02/27 10:12:55;;;;;;;6.22;4.63;;;;;;;;;;5008910;28;20088;-65
2024/02/27 10:15:21;;;;;;;6.60;4.80;;;;;;;;;;5012438;28;20380;-61
2024/02/27 10:17:47;;;;;;;5.07;4.57;;;;;;;;;;5010685;28;20120;-63
2024/02/27 10:20:17;;;;;;;7.57;4.57;;;;;;;;;;5012261;28;20068;-67
2024/02/27 10:23:02;;;;;;;5.95;4.80;;;;;;;;;;5007231;28;20061;-58
2024/02/27 10:25:28;;;;;;;6.70;5.55;;;;;;;;;;5006864;28;20084;-61
2024/02/27 10:27:56;;;;;;;9.88;6.53;;;;;;;;;;5011644;28;20419;-58
2024/02/27 10:30:22;;;;;;;9.43;6.68;;;;;;;;;;5012039;28;20125;-52
2024/02/27 10:32:49;;;;;;;10.60;7.00;;;;;;;;;;5011918;28;20026;-52
2024/02/27 10:35:16;;;;;;;8.27;7.43;;;;;;;;;;5010879;28;20109;-60
2024/02/27 10:37:43;;;;;;;8.38;6.53;;;;;;;;;;5007228;28;20538;-61
2024/02/27 10:40:10;;;;;;;10.18;8.25;;;;;;;;;;5011959;28;20388;-61
2024/02/27 10:42:43;;;;;;;5.28;4.78;;;;;;;;;;5011809;28;20022;-60
2024/02/27 10:45:10;;;;;;;8.77;7.32;;;;;;;;;;5011252;28;20437;-60
2024/02/27 10:47:36;;;;;;;7.20;5.63;;;;;;;;;;5011636;28;20126;-50
2024/02/27 10:50:05;;;;;;;9.63;6.00;;;;;;;;;;5011465;28;20030;-51
2024/02/27 10:52:33;;;;;;;5.82;5.13;;;;;;;;;;5011679;28;20103;-46
2024/02/27 10:54:59;;;;;;;6.88;5.88;;;;;;;;;;5011380;28;20113;-49
2024/02/27 10:57:25;;;;;;;9.20;5.43;;;;;;;;;;5012069;28;20129;-52
2024/02/27 10:59:52;;;;;;;9.43;6.35;;;;;;;;;;5011590;28;20100;-48
2024/02/27 11:02:18;;;;;;;7.43;5.72;;;;;;;;;;5011246;28;20423;-50
2024/02/27 11:04:46;;;;;;;6.00;5.00;;;;;;;;;;5012094;28;20472;-48
2024/02/27 11:07:13;;;;;;;7.03;4.93;;;;;;;;;;5013103;28;20109;-55
2024/02/27 11:09:40;;;;;;;5.30;3.67;;;;;;;;;;5014221;28;20029;-58
2024/02/27 11:12:08;;;;;;;5.13;4.15;;;;;;;;;;5014565;28;20037;-59
2024/02/27 11:14:36;;;;;;;6.90;4.55;;;;;;;;;;5013549;28;20026;-60
2024/02/27 11:17:09;;;;;;;5.20;4.70;;;;;;;;;;5014507;28;20033;-51
2024/02/27 11:19:37;;;;;;;6.40;5.32;;;;;;;;;;5013993;28;20034;-48
2024/02/27 11:22:04;;;;;;;6.13;5.32;;;;;;;;;;5014685;28;20037;-53
2024/02/27 11:30:39;;;;;;;6.97;4.75;;;;;;;;;;5007286;28;20040;-74
2024/02/27 11:33:08;;;;;;;5.25;4.57;;;;;;;;;;5014225;28;20100;-68
2024/02/27 11:35:34;;;;;;;6.55;5.28;;;;;;;;;;5014013;28;20046;-62
2024/02/27 11:38:05;;;;;;;7.60;5.63;;;;;;;;;;5014271;28;20024;-63
2024/02/27 11:40:46;;;;;;;9.27;6.28;;;;;;;;;;5014557;28;20098;-64
2024/02/27 11:43:12;;;;;;;8.88;6.03;;;;;;;;;;5014128;28;20029;-65
2024/02/27 11:45:38;;;;;;;8.82;6.88;;;;;;;;;;5003169;28;20022;-52
2024/02/27 11:48:06;;;;;;;6.95;5.55;;;;;;;;;;5013530;28;20092;-54
2024/02/27 11:50:35;;;;;;;5.88;5.05;;;;;;;;;;5014337;28;20484;-55
2024/02/27 11:53:17;;;;;;;5.20;3.97;;;;;;;;;;5014239;28;20025;-54
2024/02/27 11:55:50;;;;;;;6.03;4.85;;;;;;;;;;5014151;28;20026;-55
2024/02/27 11:58:16;;;;;;;7.15;5.35;;;;;;;;;;5014170;28;20022;-55
2024/02/27 12:00:45;;;;;;;6.03;5.43;;;;;;;;;;5014028;28;20053;-55
2024/02/27 12:03:11;;;;;;;9.15;6.90;;;;;;;;;;5012725;28;20474;-55
2024/02/27 12:05:38;;;;;;;8.68;5.30;;;;;;;;;;5012911;28;20380;-55
2024/02/27 12:08:04;;;;;;;7.03;5.50;;;;;;;;;;5013959;28;20022;-54
2024/02/27 12:10:30;;;;;;;7.50;5.55;;;;;;;;;;5014087;28;20030;-54
2024/02/27 12:12:56;;;;;;;6.53;5.13;;;;;;;;;;5014302;28;20344;-55
2024/02/27 12:15:31;;;;;;;7.22;5.63;;;;;;;;;;5012556;28;20026;-51
2024/02/27 12:17:57;;;;;;;6.55;5.57;;;;;;;;;;5013090;28;20030;-55
2024/02/27 12:20:23;;;;;;;5.82;4.93;;;;;;;;;;5013875;28;20384;-54
2024/02/27 12:22:50;;;;;;;9.50;5.90;;;;;;;;;;5013974;28;20025;-55
2024/02/27 12:25:16;;;;;;;6.53;4.85;;;;;;;;;;5013839;28;20021;-56
2024/02/27 12:27:46;;;;;;;8.23;5.35;;;;;;;;;;5013839;28;20030;-55
2024/02/27 12:30:12;;;;;;;9.65;6.60;;;;;;;;;;5012301;28;20018;-55
2024/02/27 12:32:39;;;;;;;9.27;5.75;;;;;;;;;;5007987;28;20442;-54
2024/02/27 12:35:06;;;;;;;8.48;4.80;;;;;;;;;;5010842;28;20026;-53
2024/02/27 12:37:40;;;;;;;7.00;4.90;;;;;;;;;;5005593;28;20031;-52
2024/02/27 12:40:10;;;;;;;8.45;6.03;;;;;;;;;;5006361;28;20025;-55
2024/02/27 12:42:37;;;;;;;7.10;5.45;;;;;;;;;;5008239;28;20114;-55
2024/02/27 12:45:03;;;;;;;8.68;5.65;;;;;;;;;;5008832;28;20102;-55
2024/02/27 12:47:30;;;;;;;8.10;5.43;;;;;;;;;;5008937;28;20045;-53
2024/02/27 12:50:02;;;;;;;8.88;5.78;;;;;;;;;;5010694;28;20033;-53
2024/02/27 12:52:28;;;;;;;10.73;7.82;;;;;;;;;;4998365;28;20376;-55
2024/02/27 12:54:55;;;;;;;7.38;5.63;;;;;;;;;;5003170;28;20033;-53
2024/02/27 12:57:21;;;;;;;9.80;6.00;;;;;;;;;;5003761;28;20034;-51
2024/02/27 12:59:47;;;;;;;10.73;6.47;;;;;;;;;;5013266;28;20046;-50
2024/02/27 13:02:13;;;;;;;9.00;7.10;;;;;;;;;;5013379;28;20026;-52
2024/02/27 13:04:41;;;;;;;6.55;5.22;;;;;;;;;;5013202;28;20062;-52
2024/02/27 13:07:09;;;;;;;13.30;7.53;;;;;;;;;;5013420;28;20022;-53
2024/02/27 13:09:35;;;;;;;11.55;7.43;;;;;;;;;;5012885;28;20053;-51
2024/02/27 13:12:05;;;;;;;11.88;6.88;;;;;;;;;;5012836;28;20041;-52
2024/02/27 13:14:31;;;;;;;11.75;7.53;;;;;;;;;;5012956;28;20135;-54
2024/02/27 13:16:57;;;;;;;11.80;7.10;;;;;;;;;;5012909;28;20038;-55
2024/02/27 13:19:23;;;;;;;8.65;5.65;;;;;;;;;;5013350;28;20030;-51
2024/02/27 13:21:59;;;;;;;8.63;6.82;;;;;;;;;;5011750;28;20030;-56
2024/02/27 13:24:26;;;;;;;10.40;6.38;;;;;;;;;;5001984;28;20045;-58
2024/02/27 13:26:52;;;;;;;12.52;6.95;;;;;;;;;;5003301;28;20046;-50
2024/02/27 13:29:18;;;;;;;8.38;6.75;;;;;;;;;;5008998;28;20471;-60
2024/02/27 13:31:46;;;;;;;8.52;6.25;;;;;;;;;;5010173;28;20036;-53
2024/02/27 13:34:13;;;;;;;6.65;5.95;;;;;;;;;;5005628;28;20427;-52
2024/02/27 13:36:40;;;;;;;9.57;5.97;;;;;;;;;;5015355;28;20117;-60
2024/02/27 13:39:06;;;;;;;10.30;7.25;;;;;;;;;;5012028;28;20029;-58
2024/02/27 13:41:32;;;;;;;11.50;7.32;;;;;;;;;;5009355;28;20045;-61
2024/02/27 13:43:58;;;;;;;9.32;7.78;;;;;;;;;;5004493;28;20022;-59
2024/02/27 13:46:24;;;;;;;8.48;7.10;;;;;;;;;;5005449;28;20041;-56
2024/02/27 13:48:50;;;;;;;9.85;6.93;;;;;;;;;;5010555;28;20028;-60
2024/02/27 13:51:16;;;;;;;10.48;8.48;;;;;;;;;;5007403;28;20110;-59
2024/02/27 13:53:42;;;;;;;8.70;6.55;;;;;;;;;;5011915;28;20104;-59
2024/02/27 13:56:09;;;;;;;10.07;9.05;;;;;;;;;;5008305;28;20045;-61
2024/02/27 13:58:36;;;;;;;11.07;7.70;;;;;;;;;;5005276;28;20168;-58
2024/02/27 14:01:03;;;;;;;9.38;7.30;;;;;;;;;;5012788;28;20061;-52
2024/02/27 14:03:29;;;;;;;9.70;7.88;;;;;;;;;;5009797;28;20329;-55
2024/02/27 14:05:56;;;;;;;8.20;7.47;;;;;;;;;;5000280;28;20435;-56
2024/02/27 14:08:22;;;;;;;10.35;7.97;;;;;;;;;;5002251;28;20029;-53
2024/02/27 14:10:48;;;;;;;8.20;6.45;;;;;;;;;;5006804;28;20479;-63
2024/02/27 14:13:14;;;;;;;11.98;7.10;;;;;;;;;;5005121;28;20037;-62
2024/02/27 14:15:40;;;;;;;9.27;7.13;;;;;;;;;;5010463;28;20042;-53
2024/02/27 14:18:06;;;;;;;10.10;7.63;;;;;;;;;;5009665;28;20030;-53
2024/02/27 14:20:32;;;;;;;9.30;6.82;;;;;;;;;;5007885;28;20395;-53
2024/02/27 14:22:58;;;;;;;10.32;6.60;;;;;;;;;;5009472;28;20025;-50
2024/02/27 14:25:25;;;;;;;8.80;5.55;;;;;;;;;;5007982;28;20387;-54
2024/02/27 14:27:51;;;;;;;6.28;4.85;;;;;;;;;;5010164;28;20392;-51
2024/02/27 14:30:17;;;;;;;8.45;5.65;;;;;;;;;;5004662;28;20022;-51
2024/02/27 14:32:43;;;;;;;6.75;5.57;;;;;;;;;;5012457;28;20033;-57
2024/02/27 14:35:09;;;;;;;7.47;5.03;;;;;;;;;;5010030;28;20052;-61
2024/02/27 14:37:35;;;;;;;11.20;7.32;;;;;;;;;;5007786;28;20088;-60
2024/02/27 14:40:01;;;;;;;11.90;7.30;;;;;;;;;;5021669;28;20041;-55
2024/02/27 14:42:27;;;;;;;8.40;7.22;;;;;;;;;;5011526;28;20035;-61
2024/02/27 14:44:53;;;;;;;9.38;7.80;;;;;;;;;;5013768;28;20026;-62
2024/02/27 14:47:19;;;;;;;10.10;7.20;;;;;;;;;;5013858;28;20027;-60
2024/02/27 14:49:45;;;;;;;6.82;5.53;;;;;;;;;;5010829;28;20052;-59
2024/02/27 14:52:11;;;;;;;11.77;7.28;;;;;;;;;;5013351;28;20041;-60
2024/02/27 14:54:37;;;;;;;13.05;6.60;;;;;;;;;;5015919;28;20033;-53